createdAt,value
2019-04-19T00:01:18.461Z,100578.95
2019-04-19T00:03:48.730Z,100578.16
2019-04-19T00:06:29.450Z,100580.17
2019-04-19T00:09:10.437Z,100584.71
2019-04-19T00:11:33.474Z,100580.50
2019-04-19T00:13:55.748Z,100581.58
2019-04-19T00:16:24.293Z,100579.63
2019-04-19T00:19:18.388Z,100579.24
2019-04-19T00:21:39.477Z,100577.94
2019-04-19T00:23:55.223Z,100576.53
2019-04-19T00:26:24.573Z,100583.19
2019-04-19T00:29:00.624Z,100584.92
2019-04-19T00:31:34.083Z,100590.55
2019-04-19T00:33:57.989Z,100585.88
2019-04-19T00:36:25.912Z,100580.47
2019-04-19T00:39:16.212Z,100580.77
2019-04-19T00:42:00.957Z,100583.48
2019-04-19T00:44:49.120Z,100580.70
2019-04-19T00:47:17.755Z,100580.34
2019-04-19T00:49:33.660Z,100578.31
2019-04-19T00:52:05.172Z,100582.39
2019-04-19T00:54:34.169Z,100579.97
2019-04-19T00:57:03.038Z,100573.57
2019-04-19T00:59:35.818Z,100575.27
2019-04-19T01:02:04.727Z,100570.70
2019-04-19T01:04:29.921Z,100566.71
2019-04-19T01:07:00.933Z,100564.38
2019-04-19T01:09:38.565Z,100565.55
2019-04-19T01:12:10.754Z,100566.06
2019-04-19T01:14:38.215Z,100555.36
2019-04-19T01:17:13.909Z,100549.65
2019-04-19T01:19:30.190Z,100543.34
2019-04-19T01:22:01.778Z,100545.42
2019-04-19T01:24:33.388Z,100540.56
2019-04-19T01:27:00.669Z,100545.87
2019-04-19T01:29:31.354Z,100554.53
2019-04-19T01:32:06.126Z,100552.16
2019-04-19T01:34:31.291Z,100554.39
2019-04-19T01:37:03.587Z,100548.36
2019-04-19T01:39:51.197Z,100554.55
2019-04-19T01:42:21.120Z,100551.63
2019-04-19T01:44:53.342Z,100549.30
2019-04-19T01:47:52.645Z,100537.92
2019-04-19T01:50:24.712Z,100538.37
2019-04-19T01:53:03.518Z,100534.64
2019-04-19T01:55:20.838Z,100534.06
2019-04-19T01:57:43.350Z,100525.52
2019-04-19T02:00:25.316Z,100527.27
2019-04-19T02:02:52.086Z,100523.48
2019-04-19T02:05:17.921Z,100531.07
2019-04-19T02:07:48.692Z,100526.98
2019-04-19T02:11:00.856Z,100521.08
2019-04-19T02:13:31.025Z,100525.66
2019-04-19T02:15:54.783Z,100517.23
2019-04-19T02:18:27.393Z,100516.13
2019-04-19T02:20:54.557Z,100510.95
2019-04-19T02:23:24.105Z,100516.59
2019-04-19T02:25:59.265Z,100516.64
2019-04-19T02:28:29.358Z,100512.27
2019-04-19T02:31:10.689Z,100514.25
2019-04-19T02:33:55.090Z,100506.44
2019-04-19T02:36:25.187Z,100498.79
2019-04-19T02:39:02.089Z,100501.27
2019-04-19T02:41:29.940Z,100495.14
2019-04-19T02:46:40.622Z,100488.16
2019-04-19T02:51:26.217Z,100484.00
2019-04-19T02:53:56.169Z,100484.66
2019-04-19T02:57:05.770Z,100488.35
2019-04-19T02:59:49.184Z,100491.48
2019-04-19T03:04:55.249Z,100480.70
2019-04-19T03:06:52.041Z,100487.26
2019-04-19T03:09:17.585Z,100484.77
2019-04-19T03:12:03.515Z,100479.76
2019-04-19T03:14:35.516Z,100483.67
2019-04-19T03:17:05.547Z,100483.46
2019-04-19T03:19:33.174Z,100474.06
2019-04-19T03:22:01.520Z,100470.16
2019-04-19T03:24:36.857Z,100470.09
2019-04-19T03:27:00.156Z,100471.35
2019-04-19T03:29:27.592Z,100478.66
2019-04-19T03:32:41.111Z,100475.44
2019-04-19T03:37:07.637Z,100478.12
2019-04-19T03:39:44.583Z,100473.32
2019-04-19T03:43:02.684Z,100477.31
2019-04-19T03:45:19.204Z,100476.33
2019-04-19T03:47:54.695Z,100474.30
2019-04-19T03:50:20.018Z,100480.87
2019-04-19T03:52:50.067Z,100483.03
2019-04-19T03:55:22.342Z,100484.41
2019-04-19T03:57:42.440Z,100484.62
2019-04-19T04:00:04.806Z,100475.16
2019-04-19T04:02:36.842Z,100479.91
2019-04-19T04:05:09.756Z,100476.72
2019-04-19T04:07:35.951Z,100481.10
2019-04-19T04:10:21.039Z,100490.83
2019-04-19T04:13:24.326Z,100485.34
2019-04-19T04:16:09.906Z,100490.44
2019-04-19T04:18:32.337Z,100484.14
2019-04-19T04:21:02.262Z,100487.81
2019-04-19T04:23:37.498Z,100491.69
2019-04-19T04:26:08.325Z,100490.53
2019-04-19T04:28:45.880Z,100485.19
2019-04-19T04:31:13.362Z,100492.47
2019-04-19T04:33:46.989Z,100490.34
2019-04-19T04:36:25.430Z,100490.11
2019-04-19T04:38:38.400Z,100501.77
2019-04-19T04:41:11.191Z,100503.00
2019-04-19T04:43:49.444Z,100496.03
2019-04-19T04:46:46.307Z,100501.33
2019-04-19T04:49:30.697Z,100494.04
2019-04-19T04:51:52.276Z,100493.85
2019-04-19T04:54:18.591Z,100499.41
2019-04-19T04:57:02.429Z,100499.46
2019-04-19T04:59:24.088Z,100496.59
2019-04-19T05:02:03.023Z,100503.53
2019-04-19T05:04:34.821Z,100496.81
2019-04-19T05:07:10.227Z,100503.51
2019-04-19T05:09:38.930Z,100503.80
2019-04-19T05:12:44.602Z,100502.20
2019-04-19T05:14:43.662Z,100496.98
2019-04-19T05:17:30.466Z,100498.55
2019-04-19T05:19:48.981Z,100499.53
2019-04-19T05:22:11.737Z,100507.42
2019-04-19T05:24:51.785Z,100502.30
2019-04-19T05:27:22.148Z,100501.22
2019-04-19T05:29:34.398Z,100504.70
2019-04-19T05:32:09.277Z,100502.41
2019-04-19T05:34:46.590Z,100498.94
2019-04-19T05:37:13.991Z,100497.49
2019-04-19T05:40:09.593Z,100499.95
2019-04-19T05:43:02.148Z,100495.55
2019-04-19T05:45:42.940Z,100488.86
2019-04-19T05:47:56.684Z,100486.38
2019-04-19T05:50:36.039Z,100492.63
2019-04-19T05:53:04.273Z,100492.78
2019-04-19T05:55:21.181Z,100491.98
2019-04-19T05:58:06.337Z,100491.91
2019-04-19T06:00:42.187Z,100490.53
2019-04-19T06:03:06.473Z,100485.27
2019-04-19T06:05:52.903Z,100482.80
2019-04-19T06:08:05.368Z,100487.12
2019-04-19T06:10:31.427Z,100485.88
2019-04-19T06:13:01.510Z,100479.52
2019-04-19T06:15:49.556Z,100479.97
2019-04-19T06:18:31.862Z,100485.44
2019-04-19T06:21:10.522Z,100482.51
2019-04-19T06:23:45.545Z,100473.09
2019-04-19T06:26:39.850Z,100476.92
2019-04-19T06:28:52.312Z,100479.12
2019-04-19T06:31:20.046Z,100479.91
2019-04-19T06:33:43.095Z,100486.09
2019-04-19T06:35:58.908Z,100482.87
2019-04-19T06:38:22.687Z,100485.99
2019-04-19T06:40:57.860Z,100479.41
2019-04-19T06:43:34.814Z,100486.58
2019-04-19T06:46:05.746Z,100484.06
2019-04-19T06:48:27.074Z,100487.80
2019-04-19T06:50:57.432Z,100491.61
2019-04-19T06:53:23.207Z,100488.30
2019-04-19T06:56:00.353Z,100482.23
2019-04-19T06:58:27.287Z,100484.08
2019-04-19T07:01:04.424Z,100487.34
2019-04-19T07:03:23.671Z,100486.94
2019-04-19T07:06:09.062Z,100490.71
2019-04-19T07:09:04.091Z,100486.45
2019-04-19T07:11:16.402Z,100476.73
2019-04-19T07:13:37.425Z,100478.82
2019-04-19T07:16:19.299Z,100475.50
2019-04-19T07:18:39.170Z,100474.05
2019-04-19T07:21:16.309Z,100469.05
2019-04-19T07:23:45.144Z,100477.70
2019-04-19T07:26:20.399Z,100473.77
2019-04-19T07:28:30.638Z,100473.19
2019-04-19T07:31:02.309Z,100464.52
2019-04-19T07:33:41.494Z,100468.63
2019-04-19T07:36:16.902Z,100464.82
2019-04-19T07:38:55.184Z,100467.55
2019-04-19T07:41:19.238Z,100466.86
2019-04-19T07:43:59.338Z,100457.19
2019-04-19T07:46:39.873Z,100463.66
2019-04-19T07:48:53.609Z,100467.47
2019-04-19T07:51:28.672Z,100469.97
2019-04-19T07:53:54.635Z,100465.36
2019-04-19T07:59:20.307Z,100464.16
2019-04-19T08:02:07.273Z,100471.32
2019-04-19T08:04:38.052Z,100466.78
2019-04-19T08:06:53.476Z,100465.77
2019-04-19T08:09:43.090Z,100466.00
2019-04-19T08:14:26.233Z,100466.50
2019-04-19T08:17:30.697Z,100467.89
2019-04-19T08:29:13.311Z,100456.21
2019-04-19T08:31:31.862Z,100455.07
2019-04-19T08:34:02.729Z,100457.98
2019-04-19T08:36:42.285Z,100458.35
2019-04-19T08:39:20.702Z,100460.65
2019-04-19T08:41:57.378Z,100455.21
2019-04-19T08:44:18.053Z,100461.26
2019-04-19T08:46:43.022Z,100447.23
2019-04-19T08:49:35.174Z,100442.06
2019-04-19T08:52:08.433Z,100442.67
2019-04-19T08:54:57.795Z,100440.27
2019-04-19T08:57:12.552Z,100439.68
2019-04-19T08:59:54.040Z,100435.53
2019-04-19T09:02:28.840Z,100429.50
2019-04-19T09:05:02.984Z,100420.47
2019-04-19T09:10:17.496Z,100424.37
2019-04-19T09:12:31.027Z,100416.82
2019-04-19T09:15:02.194Z,100423.54
2019-04-19T09:17:47.502Z,100426.22
2019-04-19T09:22:31.623Z,100417.64
2019-04-19T09:24:54.862Z,100414.50
2019-04-19T09:27:52.208Z,100406.45
2019-04-19T09:30:08.847Z,100415.29
2019-04-19T09:32:21.570Z,100412.45
2019-04-19T09:34:55.882Z,100395.02
2019-04-19T09:37:33.692Z,100399.59
2019-04-19T09:39:59.825Z,100391.58
2019-04-19T09:42:36.239Z,100392.71
2019-04-19T09:44:54.124Z,100390.76
2019-04-19T09:47:20.885Z,100385.49
2019-04-19T09:50:03.984Z,100390.49
2019-04-19T09:52:42.760Z,100381.45
2019-04-19T09:55:18.390Z,100387.23
2019-04-19T09:57:37.070Z,100383.13
2019-04-19T10:00:02.129Z,100381.55
2019-04-19T10:02:28.873Z,100377.25
2019-04-19T10:04:53.134Z,100374.66
2019-04-19T10:07:22.902Z,100372.30
2019-04-19T10:09:57.067Z,100377.72
2019-04-19T10:12:22.300Z,100370.62
2019-04-19T10:14:51.448Z,100363.31
2019-04-19T10:17:22.521Z,100358.66
2019-04-19T10:19:51.348Z,100350.66
2019-04-19T10:22:20.862Z,100356.27
2019-04-19T10:24:52.220Z,100353.39
2019-04-19T10:27:29.730Z,100344.52
2019-04-19T10:29:59.817Z,100341.00
2019-04-19T10:32:32.887Z,100335.61
2019-04-19T10:35:01.903Z,100331.90
2019-04-19T10:37:31.583Z,100328.19
2019-04-19T10:40:01.985Z,100315.80
2019-04-19T10:42:31.538Z,100320.83
2019-04-19T10:45:00.406Z,100315.55
2019-04-19T10:47:29.482Z,100318.78
2019-04-19T10:50:11.854Z,100306.70
2019-04-19T10:52:29.310Z,100302.47
2019-04-19T10:54:59.340Z,100301.97
2019-04-19T10:57:29.708Z,100297.73
2019-04-19T11:00:01.007Z,100297.81
2019-04-19T11:02:32.118Z,100290.61
2019-04-19T11:05:02.857Z,100285.02
2019-04-19T11:07:32.801Z,100285.05
2019-04-19T11:10:02.055Z,100284.28
2019-04-19T11:12:32.176Z,100290.81
2019-04-19T11:15:02.509Z,100287.69
2019-04-19T11:17:31.741Z,100285.22
2019-04-19T11:20:17.876Z,100277.38
2019-04-19T11:22:32.080Z,100271.86
2019-04-19T11:25:02.023Z,100269.91
2019-04-19T11:27:31.112Z,100266.06
2019-04-19T11:30:05.334Z,100267.81
2019-04-19T11:32:48.661Z,100262.60
2019-04-19T11:35:17.423Z,100250.40
2019-04-19T11:37:47.379Z,100255.42
2019-04-19T11:40:17.324Z,100239.25
2019-04-19T11:42:46.283Z,100242.09
2019-04-19T11:45:15.777Z,100236.97
2019-04-19T11:47:45.134Z,100237.03
2019-04-19T11:50:14.132Z,100229.58
2019-04-19T11:53:06.148Z,100219.71
2019-04-19T11:55:38.344Z,100216.62
2019-04-19T11:58:08.547Z,100219.98
2019-04-19T12:00:43.657Z,100220.55
2019-04-19T12:03:16.291Z,100216.14
2019-04-19T12:05:44.773Z,100213.89
2019-04-19T12:08:13.259Z,100210.97
2019-04-19T12:10:42.005Z,100216.23
2019-04-19T12:13:11.038Z,100203.48
2019-04-19T12:15:40.084Z,100208.99
2019-04-19T12:18:08.763Z,100194.23
2019-04-19T12:20:37.473Z,100190.29
2019-04-19T12:23:07.349Z,100180.00
2019-04-19T12:25:37.578Z,100188.29
2019-04-19T12:28:06.139Z,100182.94
2019-04-19T12:30:38.421Z,100175.43
2019-04-19T12:33:05.619Z,100176.31
2019-04-19T12:35:34.972Z,100180.11
2019-04-19T12:38:03.963Z,100174.44
2019-04-19T12:40:38.383Z,100182.00
2019-04-19T12:43:07.720Z,100180.80
2019-04-19T12:45:36.382Z,100167.41
2019-04-19T12:48:05.321Z,100169.56
2019-04-19T12:50:36.165Z,100165.28
2019-04-19T12:53:04.330Z,100163.10
2019-04-19T12:55:32.872Z,100159.13
2019-04-19T12:58:02.014Z,100156.17
2019-04-19T13:00:50.627Z,100156.19
2019-04-19T13:03:38.034Z,100152.59
2019-04-19T13:06:09.433Z,100153.80
2019-04-19T13:08:39.067Z,100149.63
2019-04-19T13:11:09.081Z,100151.81
2019-04-19T13:13:37.791Z,100141.19
2019-04-19T13:16:06.413Z,100133.38
2019-04-19T13:18:36.163Z,100120.81
2019-04-19T13:21:06.023Z,100115.20
2019-04-19T13:23:34.690Z,100113.27
2019-04-19T13:26:03.366Z,100112.83
2019-04-19T13:28:33.278Z,100109.28
2019-04-19T13:31:02.823Z,100104.23
2019-04-19T13:33:32.674Z,100100.17
2019-04-19T13:36:03.521Z,100104.16
2019-04-19T13:39:03.820Z,100101.72
2019-04-19T13:41:54.775Z,100103.82
2019-04-19T13:44:23.310Z,100097.55
2019-04-19T13:46:52.916Z,100090.73
2019-04-19T13:49:22.402Z,100081.16
2019-04-19T13:51:54.510Z,100076.12
2019-04-19T13:54:23.105Z,100075.49
2019-04-19T13:56:52.712Z,100075.91
2019-04-19T13:59:22.376Z,100072.83
2019-04-19T14:01:52.416Z,100069.78
2019-04-19T14:04:21.984Z,100070.07
2019-04-19T14:06:50.683Z,100056.89
2019-04-19T14:09:20.984Z,100057.94
2019-04-19T14:11:49.608Z,100058.70
2019-04-19T14:14:18.520Z,100058.15
2019-04-19T14:16:47.918Z,100046.95
2019-04-19T14:19:16.566Z,100042.31
2019-04-19T14:21:45.076Z,100046.84
2019-04-19T14:24:13.636Z,100050.08
2019-04-19T14:26:48.698Z,100045.23
2019-04-19T14:29:12.898Z,100048.43
2019-04-19T14:31:42.154Z,100037.94
2019-04-19T14:34:11.106Z,100032.71
2019-04-19T14:36:40.232Z,100035.62
2019-04-19T14:39:09.049Z,100033.15
2019-04-19T14:41:38.054Z,100037.49
2019-04-19T14:44:07.228Z,100047.61
2019-04-19T14:46:36.666Z,100041.55
2019-04-19T14:49:05.294Z,100041.41
2019-04-19T14:51:37.075Z,100041.27
2019-04-19T14:54:04.780Z,100038.77
2019-04-19T14:56:34.055Z,100037.15
2019-04-19T14:59:03.026Z,100037.41
2019-04-19T15:01:57.293Z,100052.45
2019-04-19T15:04:54.166Z,100051.89
2019-04-19T15:07:23.067Z,100053.34
2019-04-19T15:09:51.647Z,100061.22
2019-04-19T15:12:20.699Z,100049.50
2019-04-19T15:14:49.563Z,100056.43
2019-04-19T15:17:19.424Z,100065.19
2019-04-19T15:19:48.352Z,100075.28
2019-04-19T15:22:17.261Z,100109.61
2019-04-19T15:24:47.143Z,100121.44
2019-04-19T15:27:16.912Z,100110.55
2019-04-19T15:29:45.581Z,100124.56
2019-04-19T15:32:14.650Z,100168.84
2019-04-19T15:34:43.524Z,100286.98
2019-04-19T15:37:16.269Z,100318.54
2019-04-19T15:39:46.231Z,100309.55
2019-04-19T15:42:16.185Z,100321.46
2019-04-19T15:44:45.094Z,100322.68
2019-04-19T15:47:14.700Z,100347.43
2019-04-19T15:49:44.025Z,100371.98
2019-04-19T15:52:12.600Z,100374.33
2019-04-19T15:54:41.910Z,100395.86
2019-04-19T15:57:10.496Z,100419.89
2019-04-19T15:59:39.249Z,100405.69
2019-04-19T16:02:29.868Z,100411.10
2019-04-19T16:05:36.088Z,100413.94
2019-04-19T16:08:24.778Z,100429.43
2019-04-19T16:11:22.710Z,100434.64
2019-04-19T16:13:52.157Z,100430.41
2019-04-19T16:16:22.865Z,100432.26
2019-04-19T16:18:52.103Z,100436.93
2019-04-19T16:21:28.251Z,100427.66
2019-04-19T16:23:51.359Z,100428.88
2019-04-19T16:26:21.133Z,100419.20
2019-04-19T16:28:49.771Z,100414.92
2019-04-19T16:31:18.380Z,100419.03
2019-04-19T16:33:47.953Z,100411.52
2019-04-19T16:36:16.894Z,100421.67
2019-04-19T16:38:46.652Z,100403.27
2019-04-19T16:41:15.427Z,100413.97
2019-04-19T16:43:43.847Z,100424.73
2019-04-19T16:46:18.595Z,100418.75
2019-04-19T16:48:42.852Z,100409.94
2019-04-19T16:51:12.593Z,100404.59
2019-04-19T16:53:42.265Z,100404.14
2019-04-19T16:56:11.958Z,100403.84
2019-04-19T16:58:40.594Z,100406.77
2019-04-19T17:01:10.308Z,100399.59
2019-04-19T17:03:39.494Z,100401.42
2019-04-19T17:06:08.696Z,100398.06
2019-04-19T17:08:38.595Z,100407.16
2019-04-19T17:11:07.904Z,100408.91
2019-04-19T17:13:36.795Z,100398.88
2019-04-19T17:16:17.784Z,100419.70
2019-04-19T17:19:04.344Z,100420.31
2019-04-19T17:21:46.215Z,100416.95
2019-04-19T17:24:04.968Z,100423.13
2019-04-19T17:26:33.561Z,100428.32
2019-04-19T17:29:02.041Z,100438.73
2019-04-19T17:31:31.972Z,100436.88
2019-04-19T17:34:01.884Z,100462.23
2019-04-19T17:36:30.723Z,100470.64
2019-04-19T17:39:00.070Z,100481.56
2019-04-19T17:41:28.828Z,100490.12
2019-04-19T17:43:57.502Z,100493.95
2019-04-19T17:46:26.500Z,100495.16
2019-04-19T17:48:55.255Z,100480.72
2019-04-19T17:51:24.892Z,100476.28
2019-04-19T17:53:53.909Z,100473.52
2019-04-19T17:56:23.695Z,100471.80
2019-04-19T17:58:52.436Z,100474.06
2019-04-19T18:01:22.124Z,100478.55
2019-04-19T18:03:51.261Z,100473.92
2019-04-19T18:06:20.369Z,100472.64
2019-04-19T18:08:49.181Z,100484.94
2019-04-19T18:11:23.982Z,100491.81
2019-04-19T18:13:49.035Z,100495.75
2019-04-19T18:16:18.564Z,100497.56
2019-04-19T18:18:49.870Z,100492.78
2019-04-19T18:21:17.847Z,100493.20
2019-04-19T18:23:52.804Z,100499.94
2019-04-19T18:26:24.401Z,100500.52
2019-04-19T18:28:49.730Z,100499.77
2019-04-19T18:31:25.977Z,100501.98
2019-04-19T18:33:58.858Z,100504.34
2019-04-19T18:36:25.265Z,100509.87
2019-04-19T18:38:51.911Z,100507.87
2019-04-19T18:41:21.112Z,100503.13
2019-04-19T18:44:02.018Z,100508.05
2019-04-19T18:46:20.580Z,100510.99
2019-04-19T18:48:49.573Z,100518.98
2019-04-19T18:51:24.685Z,100524.17
2019-04-19T18:53:59.887Z,100531.00
2019-04-19T18:56:22.153Z,100531.34
2019-04-19T18:58:50.263Z,100530.58
2019-04-19T19:01:27.116Z,100525.94
2019-04-19T19:03:50.143Z,100519.61
2019-04-19T19:06:20.066Z,100512.69
2019-04-19T19:08:54.393Z,100507.87
2019-04-19T19:11:21.387Z,100512.34
2019-04-19T19:13:51.080Z,100531.72
2019-04-19T19:16:23.514Z,100538.09
2019-04-19T19:18:52.684Z,100527.95
2019-04-19T19:21:20.451Z,100515.05
2019-04-19T19:24:16.923Z,100521.09
2019-04-19T19:26:27.477Z,100531.80
2019-04-19T19:28:50.202Z,100539.06
2019-04-19T19:31:19.052Z,100533.91
2019-04-19T19:33:50.170Z,100536.33
2019-04-19T19:36:23.362Z,100541.08
2019-04-19T19:39:00.349Z,100537.41
2019-04-19T19:41:42.407Z,100541.77
2019-04-19T19:44:05.919Z,100546.27
2019-04-19T19:46:47.556Z,100546.35
2019-04-19T19:49:29.141Z,100551.44
2019-04-19T19:51:39.542Z,100554.27
2019-04-19T19:54:37.237Z,100558.81
2019-04-19T19:56:53.902Z,100552.81
2019-04-19T19:59:07.643Z,100559.22
2019-04-19T20:01:37.238Z,100563.13
2019-04-19T20:03:58.503Z,100560.47
2019-04-19T20:06:30.712Z,100561.44
2019-04-19T20:08:59.284Z,100544.98
2019-04-19T20:11:31.087Z,100537.55
2019-04-19T20:14:01.127Z,100540.97
2019-04-19T20:16:30.590Z,100535.57
2019-04-19T20:19:02.075Z,100531.16
2019-04-19T20:21:30.300Z,100531.67
2019-04-19T20:24:08.351Z,100535.33
2019-04-19T20:26:35.954Z,100535.64
2019-04-19T20:29:06.939Z,100533.39
2019-04-19T20:31:34.495Z,100536.09
2019-04-19T20:34:02.638Z,100535.73
2019-04-19T20:36:49.688Z,100541.77
2019-04-19T20:39:27.091Z,100539.17
2019-04-19T20:41:51.874Z,100538.55
2019-04-19T20:44:40.090Z,100539.70
2019-04-19T20:46:50.470Z,100537.14
2019-04-19T20:49:19.329Z,100541.23
2019-04-19T20:52:03.110Z,100543.48
2019-04-19T20:54:49.340Z,100544.95
2019-04-19T20:57:35.375Z,100551.77
2019-04-19T20:59:50.709Z,100550.28
2019-04-19T21:02:23.847Z,100545.72
2019-04-19T21:04:52.676Z,100544.70
2019-04-19T21:07:20.058Z,100538.09
2019-04-19T21:09:47.486Z,100552.42
2019-04-19T21:12:22.589Z,100559.48
2019-04-19T21:14:47.073Z,100552.91
2019-04-19T21:17:16.996Z,100547.38
2019-04-19T21:19:48.725Z,100544.58
2019-04-19T21:22:23.727Z,100542.58
2019-04-19T21:25:02.113Z,100545.05
2019-04-19T21:27:22.462Z,100539.95
2019-04-19T21:29:48.051Z,100526.61
2019-04-19T21:32:24.287Z,100520.40
2019-04-19T21:34:48.176Z,100524.24
2019-04-19T21:37:23.350Z,100523.81
2019-04-19T21:39:51.220Z,100532.80
2019-04-19T21:42:20.976Z,100527.19
2019-04-19T21:44:52.691Z,100530.59
2019-04-19T21:47:19.866Z,100536.34
2019-04-19T21:49:53.132Z,100536.73
2019-04-19T21:52:21.937Z,100542.77
2019-04-19T21:54:51.112Z,100538.83
2019-04-19T21:57:26.396Z,100542.92
2019-04-19T21:59:50.403Z,100535.25
2019-04-19T22:02:33.195Z,100537.30
2019-04-19T22:04:57.380Z,100539.38
2019-04-19T22:07:26.013Z,100530.28
2019-04-19T22:09:58.897Z,100535.41
2019-04-19T22:12:26.258Z,100531.75
2019-04-19T22:14:59.945Z,100534.44
2019-04-19T22:17:26.858Z,100531.58
2019-04-19T22:19:57.539Z,100535.47
2019-04-19T22:22:29.989Z,100531.94
2019-04-19T22:24:59.829Z,100525.80
2019-04-19T22:27:27.441Z,100527.86
2019-04-19T22:29:56.099Z,100529.95
2019-04-19T22:32:25.339Z,100528.56
2019-04-19T22:34:54.837Z,100529.66
2019-04-19T22:37:29.086Z,100534.39
2019-04-19T22:39:54.115Z,100535.11
2019-04-19T22:42:22.590Z,100524.81
2019-04-19T22:44:51.024Z,100529.29
2019-04-19T22:47:23.445Z,100521.95
2019-04-19T22:49:50.016Z,100519.72
2019-04-19T22:52:18.651Z,100518.66
2019-04-19T22:54:48.729Z,100519.11
2019-04-19T22:57:21.952Z,100522.16
2019-04-19T22:59:53.336Z,100523.77
2019-04-19T23:02:40.701Z,100523.70
2019-04-19T23:05:08.673Z,100529.85
2019-04-19T23:07:44.927Z,100526.09
2019-04-19T23:10:08.842Z,100540.38
2019-04-19T23:12:39.590Z,100535.82
2019-04-19T23:15:18.644Z,100534.63
2019-04-19T23:17:42.633Z,100539.95
2019-04-19T23:20:09.598Z,100529.14
2019-04-19T23:22:42.605Z,100534.16
2019-04-19T23:25:11.264Z,100532.33
2019-04-19T23:27:45.984Z,100528.45
2019-04-19T23:30:18.809Z,100526.19
2019-04-19T23:32:46.286Z,100523.58
2019-04-19T23:35:16.250Z,100527.65
2019-04-19T23:37:45.439Z,100534.81
2019-04-19T23:40:15.143Z,100521.97
2019-04-19T23:42:46.812Z,100524.19
2019-04-19T23:45:14.877Z,100528.41
2019-04-19T23:47:48.265Z,100521.33
2019-04-19T23:50:15.485Z,100517.30
2019-04-19T23:52:50.973Z,100522.59
2019-04-19T23:55:14.900Z,100517.63
2019-04-19T23:57:48.504Z,100510.05
